Terminal Aerodrome Forecast
Issued by NWS

Home | Current Version | Previous Version | Text Only | Print | Product List | Glossary On
Versions: 1 2 3 4 5 6 7 8 9 10 11 12 13 14 15 16 17 18
059
FTUS43 KGRB 262325
TAFCWA
TAF
KCWA 262325Z 2700/2724 32007KT 6SM BR OVC006
      TEMPO 2704/2708 3SM -DZ BR
     FM270800 33009G14KT 5SM -RA BR OVC006
      TEMPO 2710/2714 3SM RA BR OVC003
     FM271500 30009G14KT 5SM -RA BR OVC007
     FM271800 28012G19KT P6SM OVC012
     FM272200 27011G17KT P6SM OVC025
      AMD LTD TO CLD VIS AND WIND 2703/2711=

USA.gov is the U.S. government's official web portal to all federal, state and local government web resources and services.